Guam International Airport (GUM/PGUM)



No chart available
Flight Aircraft Arriving
CPX587
RJAA - Tokyo-Narita International Airport
Japan Tokyo, Japan
CPX588
PHNL - Daniel K Inouye International Airport
United StatesHawaii Honolulu, Hawaii
Flight Aircraft Departing
CPX586
RJAA - Tokyo-Narita International Airport
Japan Tokyo, Japan
CPX589
PHNL - Daniel K Inouye International Airport
United StatesHawaii Honolulu, Hawaii


Airport Information
Location: Guam,
Coordinates: 13.484 / 144.797
Field Elevation: 297ft
Longest Runway: 12,035ft
ILS Approaches: YES
Landing Fees: $740 per flight
Jet A Price: $0.76/lbs

Current Weather
METAR: PGUM 042054Z 05004KT 10SM FEW035 SCT070 26/26 A2983 RMK AO2 SLP071 T02610256 52003 $
TAF: PGUM 041732Z 0418/0524 09011KT P6SM SCT020 SCT050

Recent Arrivals
Date Flight Type Depart
05/01/2022 CPX589 B744 Daniel K Inouye Intl (PHNL)
12/12/2019 CPX302 B763 Daniel K Inouye Intl (PHNL)
09/09/2019 CPX304 B763 Tokyo-Narita Intl (RJAA)
07/19/2019 CMB853 B752 Yokota AFB (RJTY)
07/12/2019 CPX302 B763 Daniel K Inouye Intl (PHNL)
04/09/2019 CPX302 B763 Daniel K Inouye Intl (PHNL)
Recent Departures
Date Flight Type Arrive
05/08/2022 CPX587 B744 Tokyo-Narita Intl (RJAA)
12/13/2019 CPX309 B763 Tokyo-Narita Intl (RJAA)
09/12/2019 CPX303 B763 Daniel K Inouye Intl (PHNL)
08/15/2019 CMB855 B752 Daniel K Inouye Intl (PHNL)
07/13/2019 CPX309 B763 Tokyo-Narita Intl (RJAA)
04/15/2019 CPX309 B763 Tokyo-Narita Intl (RJAA)